sensor_id;sensor_type;location;lat;lon;timestamp;P1;durP1;ratioP1;P2;durP2;ratioP2
26106;SDS011;13866;50.748;12.630;2022-12-07T00:01:28;16.57;;;14.87;;
26106;SDS011;13866;50.748;12.630;2022-12-07T00:03:59;17.53;;;15.13;;
26106;SDS011;13866;50.748;12.630;2022-12-07T00:06:30;17.27;;;15.30;;
26106;SDS011;13866;50.748;12.630;2022-12-07T00:08:56;15.97;;;14.27;;
26106;SDS011;13866;50.748;12.630;2022-12-07T00:11:22;18.97;;;15.17;;
26106;SDS011;13866;50.748;12.630;2022-12-07T00:13:52;17.27;;;15.40;;
26106;SDS011;13866;50.748;12.630;2022-12-07T00:16:19;18.17;;;16.33;;
26106;SDS011;13866;50.748;12.630;2022-12-07T00:18:46;16.37;;;14.67;;
26106;SDS011;13866;50.748;12.630;2022-12-07T00:21:13;18.33;;;16.43;;
26106;SDS011;13866;50.748;12.630;2022-12-07T00:23:44;17.47;;;15.67;;
26106;SDS011;13866;50.748;12.630;2022-12-07T00:26:12;21.30;;;14.80;;
26106;SDS011;13866;50.748;12.630;2022-12-07T00:28:38;16.87;;;15.17;;
26106;SDS011;13866;50.748;12.630;2022-12-07T00:31:05;17.47;;;15.67;;
26106;SDS011;13866;50.748;12.630;2022-12-07T00:33:33;18.10;;;16.27;;
26106;SDS011;13866;50.748;12.630;2022-12-07T00:36:00;17.07;;;15.50;;
26106;SDS011;13866;50.748;12.630;2022-12-07T00:38:30;20.40;;;15.47;;
26106;SDS011;13866;50.748;12.630;2022-12-07T00:41:01;17.60;;;15.90;;
26106;SDS011;13866;50.748;12.630;2022-12-07T00:43:29;17.33;;;14.73;;
26106;SDS011;13866;50.748;12.630;2022-12-07T00:45:55;17.57;;;15.40;;
26106;SDS011;13866;50.748;12.630;2022-12-07T00:48:21;16.80;;;15.17;;
26106;SDS011;13866;50.748;12.630;2022-12-07T00:50:47;18.00;;;14.70;;
26106;SDS011;13866;50.748;12.630;2022-12-07T00:53:12;20.97;;;16.70;;
26106;SDS011;13866;50.748;12.630;2022-12-07T00:55:38;19.37;;;16.63;;
26106;SDS011;13866;50.748;12.630;2022-12-07T00:58:04;18.33;;;15.80;;
26106;SDS011;13866;50.748;12.630;2022-12-07T01:00:30;20.47;;;15.63;;
26106;SDS011;13866;50.748;12.630;2022-12-07T01:02:56;16.87;;;15.20;;
26106;SDS011;13866;50.748;12.630;2022-12-07T01:05:21;18.37;;;16.37;;
26106;SDS011;13866;50.748;12.630;2022-12-07T01:07:47;21.63;;;17.30;;
26106;SDS011;13866;50.748;12.630;2022-12-07T01:10:13;16.93;;;15.13;;
26106;SDS011;13866;50.748;12.630;2022-12-07T01:12:39;18.70;;;16.63;;
26106;SDS011;13866;50.748;12.630;2022-12-07T01:15:05;19.60;;;15.73;;
26106;SDS011;13866;50.748;12.630;2022-12-07T01:17:32;17.23;;;14.77;;
26106;SDS011;13866;50.748;12.630;2022-12-07T01:19:57;17.20;;;14.80;;
26106;SDS011;13866;50.748;12.630;2022-12-07T01:22:23;20.57;;;15.27;;
26106;SDS011;13866;50.748;12.630;2022-12-07T01:24:49;17.87;;;15.80;;
26106;SDS011;13866;50.748;12.630;2022-12-07T01:27:14;16.47;;;14.90;;
26106;SDS011;13866;50.748;12.630;2022-12-07T01:29:40;18.57;;;16.80;;
26106;SDS011;13866;50.748;12.630;2022-12-07T01:32:06;14.80;;;13.47;;
26106;SDS011;13866;50.748;12.630;2022-12-07T01:34:31;16.03;;;14.50;;
26106;SDS011;13866;50.748;12.630;2022-12-07T01:36:57;16.70;;;14.73;;
26106;SDS011;13866;50.748;12.630;2022-12-07T01:39:22;16.57;;;14.90;;
26106;SDS011;13866;50.748;12.630;2022-12-07T01:41:48;14.73;;;12.53;;
26106;SDS011;13866;50.748;12.630;2022-12-07T01:46:46;15.50;;;13.63;;
26106;SDS011;13866;50.748;12.630;2022-12-07T01:49:56;13.80;;;12.70;;
26106;SDS011;13866;50.748;12.630;2022-12-07T01:52:15;14.73;;;13.00;;
26106;SDS011;13866;50.748;12.630;2022-12-07T01:54:53;11.87;;;10.67;;
26106;SDS011;13866;50.748;12.630;2022-12-07T01:57:22;11.37;;;10.40;;
26106;SDS011;13866;50.748;12.630;2022-12-07T01:59:48;11.27;;;10.13;;
26106;SDS011;13866;50.748;12.630;2022-12-07T02:02:20;11.30;;;10.33;;
26106;SDS011;13866;50.748;12.630;2022-12-07T02:04:50;15.60;;;10.70;;
26106;SDS011;13866;50.748;12.630;2022-12-07T02:07:18;14.20;;;10.47;;
26106;SDS011;13866;50.748;12.630;2022-12-07T02:09:45;9.97;;;8.97;;
26106;SDS011;13866;50.748;12.630;2022-12-07T02:12:10;9.70;;;9.10;;
26106;SDS011;13866;50.748;12.630;2022-12-07T02:14:36;9.57;;;8.93;;
26106;SDS011;13866;50.748;12.630;2022-12-07T02:28:04;13.27;;;8.43;;
26106;SDS011;13866;50.748;12.630;2022-12-07T02:30:49;8.20;;;7.80;;
26106;SDS011;13866;50.748;12.630;2022-12-07T02:33:19;9.27;;;8.63;;
26106;SDS011;13866;50.748;12.630;2022-12-07T02:36:14;7.33;;;6.97;;
26106;SDS011;13866;50.748;12.630;2022-12-07T02:38:48;6.80;;;6.50;;
26106;SDS011;13866;50.748;12.630;2022-12-07T02:41:29;7.90;;;7.40;;
26106;SDS011;13866;50.748;12.630;2022-12-07T02:44:10;7.07;;;6.77;;
26106;SDS011;13866;50.748;12.630;2022-12-07T02:46:40;7.93;;;7.60;;
26106;SDS011;13866;50.748;12.630;2022-12-07T02:49:14;8.10;;;7.50;;
26106;SDS011;13866;50.748;12.630;2022-12-07T02:51:41;6.20;;;6.00;;
26106;SDS011;13866;50.748;12.630;2022-12-07T02:54:12;6.83;;;6.53;;
26106;SDS011;13866;50.748;12.630;2022-12-07T02:59:17;7.03;;;6.70;;
26106;SDS011;13866;50.748;12.630;2022-12-07T03:05:10;9.83;;;6.87;;
26106;SDS011;13866;50.748;12.630;2022-12-07T03:15:52;5.73;;;5.60;;
26106;SDS011;13866;50.748;12.630;2022-12-07T03:18:25;6.60;;;6.30;;
26106;SDS011;13866;50.748;12.630;2022-12-07T03:20:57;7.20;;;6.67;;
26106;SDS011;13866;50.748;12.630;2022-12-07T03:23:27;6.47;;;6.13;;
26106;SDS011;13866;50.748;12.630;2022-12-07T03:25:55;6.87;;;6.47;;
26106;SDS011;13866;50.748;12.630;2022-12-07T03:28:26;5.40;;;5.03;;
26106;SDS011;13866;50.748;12.630;2022-12-07T03:30:57;5.73;;;5.53;;
26106;SDS011;13866;50.748;12.630;2022-12-07T03:33:33;6.67;;;6.37;;
26106;SDS011;13866;50.748;12.630;2022-12-07T03:36:05;7.30;;;7.00;;
26106;SDS011;13866;50.748;12.630;2022-12-07T03:38:46;8.80;;;8.17;;
26106;SDS011;13866;50.748;12.630;2022-12-07T03:41:33;5.90;;;5.13;;
26106;SDS011;13866;50.748;12.630;2022-12-07T03:44:01;6.30;;;6.03;;
26106;SDS011;13866;50.748;12.630;2022-12-07T03:49:30;6.13;;;5.80;;
26106;SDS011;13866;50.748;12.630;2022-12-07T03:54:59;4.90;;;4.80;;
26106;SDS011;13866;50.748;12.630;2022-12-07T03:57:30;5.97;;;5.87;;
26106;SDS011;13866;50.748;12.630;2022-12-07T03:59:57;5.90;;;5.70;;
26106;SDS011;13866;50.748;12.630;2022-12-07T04:02:25;6.30;;;5.80;;
26106;SDS011;13866;50.748;12.630;2022-12-07T04:04:52;6.07;;;5.90;;
26106;SDS011;13866;50.748;12.630;2022-12-07T04:07:18;6.07;;;5.87;;
26106;SDS011;13866;50.748;12.630;2022-12-07T04:09:43;5.33;;;5.13;;
26106;SDS011;13866;50.748;12.630;2022-12-07T04:12:09;5.00;;;4.80;;
26106;SDS011;13866;50.748;12.630;2022-12-07T04:14:34;5.03;;;4.93;;
26106;SDS011;13866;50.748;12.630;2022-12-07T04:17:00;5.50;;;5.40;;
26106;SDS011;13866;50.748;12.630;2022-12-07T04:19:26;5.73;;;5.30;;
26106;SDS011;13866;50.748;12.630;2022-12-07T04:21:54;5.20;;;5.10;;
26106;SDS011;13866;50.748;12.630;2022-12-07T04:24:22;5.63;;;5.43;;
26106;SDS011;13866;50.748;12.630;2022-12-07T04:26:48;5.03;;;4.93;;
26106;SDS011;13866;50.748;12.630;2022-12-07T04:29:14;4.97;;;4.87;;
26106;SDS011;13866;50.748;12.630;2022-12-07T04:31:40;4.72;;;4.63;;
26106;SDS011;13866;50.748;12.630;2022-12-07T04:34:06;5.67;;;5.37;;
26106;SDS011;13866;50.748;12.630;2022-12-07T04:36:32;5.53;;;5.30;;
26106;SDS011;13866;50.748;12.630;2022-12-07T04:38:58;4.67;;;4.47;;
26106;SDS011;13866;50.748;12.630;2022-12-07T04:41:24;5.13;;;4.83;;
26106;SDS011;13866;50.748;12.630;2022-12-07T04:43:56;4.57;;;4.47;;
26106;SDS011;13866;50.748;12.630;2022-12-07T04:46:23;4.97;;;4.87;;
26106;SDS011;13866;50.748;12.630;2022-12-07T04:48:50;4.80;;;4.70;;
26106;SDS011;13866;50.748;12.630;2022-12-07T04:51:18;4.70;;;4.60;;
26106;SDS011;13866;50.748;12.630;2022-12-07T04:53:49;16.13;;;5.72;;
26106;SDS011;13866;50.748;12.630;2022-12-07T04:56:15;5.77;;;5.53;;
26106;SDS011;13866;50.748;12.630;2022-12-07T04:58:41;5.13;;;5.03;;
26106;SDS011;13866;50.748;12.630;2022-12-07T05:01:08;6.00;;;5.77;;
26106;SDS011;13866;50.748;12.630;2022-12-07T05:03:33;6.10;;;5.90;;
26106;SDS011;13866;50.748;12.630;2022-12-07T05:06:00;5.43;;;5.33;;
26106;SDS011;13866;50.748;12.630;2022-12-07T05:08:25;5.47;;;5.37;;
26106;SDS011;13866;50.748;12.630;2022-12-07T05:10:51;6.17;;;5.93;;
26106;SDS011;13866;50.748;12.630;2022-12-07T05:13:16;8.67;;;8.17;;
26106;SDS011;13866;50.748;12.630;2022-12-07T05:15:42;6.23;;;5.97;;
26106;SDS011;13866;50.748;12.630;2022-12-07T05:18:08;6.57;;;6.40;;
26106;SDS011;13866;50.748;12.630;2022-12-07T05:20:36;6.53;;;6.03;;
26106;SDS011;13866;50.748;12.630;2022-12-07T05:23:02;6.37;;;5.77;;
26106;SDS011;13866;50.748;12.630;2022-12-07T05:25:28;5.70;;;5.60;;
26106;SDS011;13866;50.748;12.630;2022-12-07T05:27:54;6.50;;;6.10;;
26106;SDS011;13866;50.748;12.630;2022-12-07T05:30:21;6.63;;;6.32;;
26106;SDS011;13866;50.748;12.630;2022-12-07T05:32:47;7.80;;;7.50;;
26106;SDS011;13866;50.748;12.630;2022-12-07T05:35:13;7.47;;;7.20;;
26106;SDS011;13866;50.748;12.630;2022-12-07T05:37:38;7.37;;;7.07;;
26106;SDS011;13866;50.748;12.630;2022-12-07T05:40:04;7.53;;;7.20;;
26106;SDS011;13866;50.748;12.630;2022-12-07T05:42:30;8.27;;;7.87;;
26106;SDS011;13866;50.748;12.630;2022-12-07T05:44:55;9.97;;;8.83;;
26106;SDS011;13866;50.748;12.630;2022-12-07T05:47:21;7.37;;;7.07;;
26106;SDS011;13866;50.748;12.630;2022-12-07T05:49:47;8.90;;;8.40;;
26106;SDS011;13866;50.748;12.630;2022-12-07T05:52:12;8.63;;;8.13;;
26106;SDS011;13866;50.748;12.630;2022-12-07T05:54:38;12.10;;;8.90;;
26106;SDS011;13866;50.748;12.630;2022-12-07T05:57:03;8.47;;;7.87;;
26106;SDS011;13866;50.748;12.630;2022-12-07T05:59:29;10.07;;;9.57;;
26106;SDS011;13866;50.748;12.630;2022-12-07T06:02:05;11.30;;;10.30;;
26106;SDS011;13866;50.748;12.630;2022-12-07T06:04:32;9.90;;;9.30;;
26106;SDS011;13866;50.748;12.630;2022-12-07T06:07:00;10.53;;;9.83;;
26106;SDS011;13866;50.748;12.630;2022-12-07T06:09:26;9.60;;;9.03;;
26106;SDS011;13866;50.748;12.630;2022-12-07T06:11:53;11.90;;;10.80;;
26106;SDS011;13866;50.748;12.630;2022-12-07T06:14:37;11.83;;;10.80;;
26106;SDS011;13866;50.748;12.630;2022-12-07T06:17:03;10.13;;;9.43;;
26106;SDS011;13866;50.748;12.630;2022-12-07T06:19:29;11.17;;;10.30;;
26106;SDS011;13866;50.748;12.630;2022-12-07T06:21:55;10.30;;;9.60;;
26106;SDS011;13866;50.748;12.630;2022-12-07T06:24:21;12.13;;;11.20;;
26106;SDS011;13866;50.748;12.630;2022-12-07T06:26:47;10.13;;;9.40;;
26106;SDS011;13866;50.748;12.630;2022-12-07T06:29:13;12.50;;;11.50;;
26106;SDS011;13866;50.748;12.630;2022-12-07T06:31:38;11.53;;;10.63;;
26106;SDS011;13866;50.748;12.630;2022-12-07T06:34:05;12.90;;;11.80;;
26106;SDS011;13866;50.748;12.630;2022-12-07T06:36:33;12.57;;;11.23;;
26106;SDS011;13866;50.748;12.630;2022-12-07T06:38:59;13.93;;;12.83;;
26106;SDS011;13866;50.748;12.630;2022-12-07T06:41:24;11.23;;;10.40;;
26106;SDS011;13866;50.748;12.630;2022-12-07T06:43:50;11.10;;;10.33;;
26106;SDS011;13866;50.748;12.630;2022-12-07T06:46:16;13.10;;;11.90;;
26106;SDS011;13866;50.748;12.630;2022-12-07T06:48:42;12.73;;;11.40;;
26106;SDS011;13866;50.748;12.630;2022-12-07T06:51:08;11.73;;;10.93;;
26106;SDS011;13866;50.748;12.630;2022-12-07T06:53:34;11.57;;;10.67;;
26106;SDS011;13866;50.748;12.630;2022-12-07T06:56:01;13.57;;;12.00;;
26106;SDS011;13866;50.748;12.630;2022-12-07T06:58:27;12.97;;;11.97;;
26106;SDS011;13866;50.748;12.630;2022-12-07T07:00:53;11.57;;;10.77;;
26106;SDS011;13866;50.748;12.630;2022-12-07T07:03:19;12.23;;;11.27;;
26106;SDS011;13866;50.748;12.630;2022-12-07T07:05:44;11.50;;;10.77;;
26106;SDS011;13866;50.748;12.630;2022-12-07T07:08:10;11.90;;;11.00;;
26106;SDS011;13866;50.748;12.630;2022-12-07T07:10:36;9.50;;;8.90;;
26106;SDS011;13866;50.748;12.630;2022-12-07T07:13:03;13.03;;;11.10;;
26106;SDS011;13866;50.748;12.630;2022-12-07T07:15:28;11.40;;;10.60;;
26106;SDS011;13866;50.748;12.630;2022-12-07T07:17:55;12.53;;;11.50;;
26106;SDS011;13866;50.748;12.630;2022-12-07T07:20:21;10.37;;;9.67;;
26106;SDS011;13866;50.748;12.630;2022-12-07T07:22:47;12.00;;;11.20;;
26106;SDS011;13866;50.748;12.630;2022-12-07T07:25:13;12.70;;;11.50;;
26106;SDS011;13866;50.748;12.630;2022-12-07T07:27:39;12.40;;;11.37;;
26106;SDS011;13866;50.748;12.630;2022-12-07T07:30:05;11.20;;;10.50;;
26106;SDS011;13866;50.748;12.630;2022-12-07T07:32:32;12.10;;;11.10;;
26106;SDS011;13866;50.748;12.630;2022-12-07T07:34:57;13.63;;;12.37;;
26106;SDS011;13866;50.748;12.630;2022-12-07T07:37:23;12.43;;;11.33;;
26106;SDS011;13866;50.748;12.630;2022-12-07T07:39:48;12.10;;;10.90;;
26106;SDS011;13866;50.748;12.630;2022-12-07T07:42:14;12.07;;;11.13;;
26106;SDS011;13866;50.748;12.630;2022-12-07T07:44:39;10.67;;;9.70;;
26106;SDS011;13866;50.748;12.630;2022-12-07T07:47:05;11.50;;;10.63;;
26106;SDS011;13866;50.748;12.630;2022-12-07T07:49:30;13.07;;;12.07;;
26106;SDS011;13866;50.748;12.630;2022-12-07T07:51:56;12.17;;;11.17;;
26106;SDS011;13866;50.748;12.630;2022-12-07T07:54:22;11.60;;;10.70;;
26106;SDS011;13866;50.748;12.630;2022-12-07T07:56:47;11.53;;;10.53;;
26106;SDS011;13866;50.748;12.630;2022-12-07T07:59:12;11.33;;;10.40;;
26106;SDS011;13866;50.748;12.630;2022-12-07T08:01:39;10.53;;;9.80;;
26106;SDS011;13866;50.748;12.630;2022-12-07T08:04:05;12.40;;;11.30;;
26106;SDS011;13866;50.748;12.630;2022-12-07T08:06:30;11.87;;;10.90;;
26106;SDS011;13866;50.748;12.630;2022-12-07T08:08:56;10.77;;;9.70;;
26106;SDS011;13866;50.748;12.630;2022-12-07T08:11:23;9.57;;;8.87;;
26106;SDS011;13866;50.748;12.630;2022-12-07T08:13:48;10.70;;;9.90;;
26106;SDS011;13866;50.748;12.630;2022-12-07T08:16:14;10.43;;;9.77;;
26106;SDS011;13866;50.748;12.630;2022-12-07T08:18:40;10.33;;;9.53;;
26106;SDS011;13866;50.748;12.630;2022-12-07T08:21:07;10.60;;;9.80;;
26106;SDS011;13866;50.748;12.630;2022-12-07T08:23:35;10.10;;;9.20;;
26106;SDS011;13866;50.748;12.630;2022-12-07T08:26:01;11.13;;;10.13;;
26106;SDS011;13866;50.748;12.630;2022-12-07T08:28:31;11.17;;;10.30;;
26106;SDS011;13866;50.748;12.630;2022-12-07T08:31:00;10.23;;;9.53;;
26106;SDS011;13866;50.748;12.630;2022-12-07T08:33:27;10.97;;;10.10;;
26106;SDS011;13866;50.748;12.630;2022-12-07T08:35:52;11.30;;;10.40;;
26106;SDS011;13866;50.748;12.630;2022-12-07T08:38:18;11.77;;;10.57;;
26106;SDS011;13866;50.748;12.630;2022-12-07T08:40:44;10.77;;;9.80;;
26106;SDS011;13866;50.748;12.630;2022-12-07T08:43:09;10.23;;;9.33;;
26106;SDS011;13866;50.748;12.630;2022-12-07T08:45:35;10.00;;;9.20;;
26106;SDS011;13866;50.748;12.630;2022-12-07T08:48:06;10.70;;;9.67;;
26106;SDS011;13866;50.748;12.630;2022-12-07T08:50:35;10.60;;;9.70;;
26106;SDS011;13866;50.748;12.630;2022-12-07T08:53:02;10.50;;;9.60;;
26106;SDS011;13866;50.748;12.630;2022-12-07T08:55:29;9.63;;;8.90;;
26106;SDS011;13866;50.748;12.630;2022-12-07T08:57:56;9.50;;;9.00;;
26106;SDS011;13866;50.748;12.630;2022-12-07T09:00:23;9.97;;;9.37;;
26106;SDS011;13866;50.748;12.630;2022-12-07T09:02:49;12.23;;;11.13;;
26106;SDS011;13866;50.748;12.630;2022-12-07T09:05:14;10.63;;;9.43;;
26106;SDS011;13866;50.748;12.630;2022-12-07T09:07:40;10.07;;;8.87;;
26106;SDS011;13866;50.748;12.630;2022-12-07T09:10:08;8.93;;;8.30;;
26106;SDS011;13866;50.748;12.630;2022-12-07T09:12:34;9.93;;;9.23;;
26106;SDS011;13866;50.748;12.630;2022-12-07T09:14:59;11.93;;;10.17;;
26106;SDS011;13866;50.748;12.630;2022-12-07T09:17:26;9.60;;;9.10;;
26106;SDS011;13866;50.748;12.630;2022-12-07T09:19:51;9.07;;;8.60;;
26106;SDS011;13866;50.748;12.630;2022-12-07T09:22:17;9.97;;;9.43;;
26106;SDS011;13866;50.748;12.630;2022-12-07T09:24:43;10.50;;;9.40;;
26106;SDS011;13866;50.748;12.630;2022-12-07T09:27:10;9.03;;;8.50;;
26106;SDS011;13866;50.748;12.630;2022-12-07T09:29:36;9.10;;;8.50;;
26106;SDS011;13866;50.748;12.630;2022-12-07T09:32:02;10.20;;;9.30;;
26106;SDS011;13866;50.748;12.630;2022-12-07T09:34:29;8.47;;;7.97;;
26106;SDS011;13866;50.748;12.630;2022-12-07T09:36:56;10.13;;;9.10;;
26106;SDS011;13866;50.748;12.630;2022-12-07T09:39:21;8.83;;;8.13;;
26106;SDS011;13866;50.748;12.630;2022-12-07T09:41:47;9.60;;;9.03;;
26106;SDS011;13866;50.748;12.630;2022-12-07T09:44:13;8.93;;;8.17;;
26106;SDS011;13866;50.748;12.630;2022-12-07T09:46:45;9.00;;;8.20;;
26106;SDS011;13866;50.748;12.630;2022-12-07T09:49:12;14.83;;;8.80;;
26106;SDS011;13866;50.748;12.630;2022-12-07T09:51:46;11.00;;;8.03;;
26106;SDS011;13866;50.748;12.630;2022-12-07T09:54:13;9.13;;;8.60;;
26106;SDS011;13866;50.748;12.630;2022-12-07T09:56:41;8.60;;;8.00;;
26106;SDS011;13866;50.748;12.630;2022-12-07T09:59:16;7.87;;;7.50;;
26106;SDS011;13866;50.748;12.630;2022-12-07T10:01:43;9.93;;;8.90;;
26106;SDS011;13866;50.748;12.630;2022-12-07T10:06:39;7.13;;;6.93;;
26106;SDS011;13866;50.748;12.630;2022-12-07T10:09:13;8.37;;;7.57;;
26106;SDS011;13866;50.748;12.630;2022-12-07T10:14:30;7.50;;;7.10;;
26106;SDS011;13866;50.748;12.630;2022-12-07T10:16:57;6.70;;;6.20;;
26106;SDS011;13866;50.748;12.630;2022-12-07T10:19:30;6.23;;;5.93;;
26106;SDS011;13866;50.748;12.630;2022-12-07T10:21:59;7.87;;;7.30;;
26106;SDS011;13866;50.748;12.630;2022-12-07T10:24:27;7.30;;;6.70;;
26106;SDS011;13866;50.748;12.630;2022-12-07T10:26:53;6.33;;;5.97;;
26106;SDS011;13866;50.748;12.630;2022-12-07T10:29:24;6.17;;;5.70;;
26106;SDS011;13866;50.748;12.630;2022-12-07T10:31:56;6.83;;;6.57;;
26106;SDS011;13866;50.748;12.630;2022-12-07T10:34:32;6.23;;;6.03;;
26106;SDS011;13866;50.748;12.630;2022-12-07T10:39:50;7.83;;;7.23;;
26106;SDS011;13866;50.748;12.630;2022-12-07T10:42:24;5.90;;;5.60;;
26106;SDS011;13866;50.748;12.630;2022-12-07T10:50:58;5.70;;;5.13;;
26106;SDS011;13866;50.748;12.630;2022-12-07T10:53:39;5.57;;;5.33;;
26106;SDS011;13866;50.748;12.630;2022-12-07T11:18:24;5.37;;;5.07;;
26106;SDS011;13866;50.748;12.630;2022-12-07T11:24:27;4.93;;;4.83;;
26106;SDS011;13866;50.748;12.630;2022-12-07T11:26:56;4.57;;;4.47;;
26106;SDS011;13866;50.748;12.630;2022-12-07T11:30:08;5.33;;;5.23;;
26106;SDS011;13866;50.748;12.630;2022-12-07T11:38:13;4.23;;;3.83;;
26106;SDS011;13866;50.748;12.630;2022-12-07T11:40:43;4.23;;;4.03;;
26106;SDS011;13866;50.748;12.630;2022-12-07T11:43:29;3.83;;;3.73;;
26106;SDS011;13866;50.748;12.630;2022-12-07T11:46:00;5.83;;;4.27;;
26106;SDS011;13866;50.748;12.630;2022-12-07T11:48:35;3.80;;;3.60;;
26106;SDS011;13866;50.748;12.630;2022-12-07T11:51:03;5.27;;;3.40;;
26106;SDS011;13866;50.748;12.630;2022-12-07T11:53:38;3.60;;;3.60;;
26106;SDS011;13866;50.748;12.630;2022-12-07T11:56:19;4.07;;;4.00;;
26106;SDS011;13866;50.748;12.630;2022-12-07T12:06:40;3.30;;;3.20;;
26106;SDS011;13866;50.748;12.630;2022-12-07T12:09:16;4.27;;;3.87;;
26106;SDS011;13866;50.748;12.630;2022-12-07T12:15:03;4.97;;;4.83;;
26106;SDS011;13866;50.748;12.630;2022-12-07T12:26:21;3.13;;;3.03;;
26106;SDS011;13866;50.748;12.630;2022-12-07T12:28:56;2.77;;;2.60;;
26106;SDS011;13866;50.748;12.630;2022-12-07T12:33:53;3.43;;;3.20;;
26106;SDS011;13866;50.748;12.630;2022-12-07T12:36:26;2.93;;;2.70;;
26106;SDS011;13866;50.748;12.630;2022-12-07T12:46:49;3.23;;;2.80;;
26106;SDS011;13866;50.748;12.630;2022-12-07T12:49:39;2.50;;;2.50;;
26106;SDS011;13866;50.748;12.630;2022-12-07T12:54:57;5.03;;;3.07;;
26106;SDS011;13866;50.748;12.630;2022-12-07T12:57:37;3.07;;;2.97;;
26106;SDS011;13866;50.748;12.630;2022-12-07T13:00:15;3.33;;;3.17;;
26106;SDS011;13866;50.748;12.630;2022-12-07T13:02:53;3.10;;;3.00;;
26106;SDS011;13866;50.748;12.630;2022-12-07T13:05:22;2.63;;;2.63;;
26106;SDS011;13866;50.748;12.630;2022-12-07T13:07:51;3.50;;;2.63;;
26106;SDS011;13866;50.748;12.630;2022-12-07T13:13:02;5.97;;;2.90;;
26106;SDS011;13866;50.748;12.630;2022-12-07T13:23:36;2.70;;;2.60;;
26106;SDS011;13866;50.748;12.630;2022-12-07T13:29:04;2.47;;;2.47;;
26106;SDS011;13866;50.748;12.630;2022-12-07T13:31:51;2.87;;;2.80;;
26106;SDS011;13866;50.748;12.630;2022-12-07T13:34:29;2.37;;;2.37;;
26106;SDS011;13866;50.748;12.630;2022-12-07T13:36:56;2.50;;;2.40;;
26106;SDS011;13866;50.748;12.630;2022-12-07T13:39:23;13.90;;;2.30;;
26106;SDS011;13866;50.748;12.630;2022-12-07T13:41:54;2.23;;;2.23;;
26106;SDS011;13866;50.748;12.630;2022-12-07T13:44:22;1.80;;;1.70;;
26106;SDS011;13866;50.748;12.630;2022-12-07T13:49:22;2.20;;;2.20;;
26106;SDS011;13866;50.748;12.630;2022-12-07T13:51:52;2.40;;;2.30;;
26106;SDS011;13866;50.748;12.630;2022-12-07T13:54:20;1.93;;;1.83;;
26106;SDS011;13866;50.748;12.630;2022-12-07T13:56:52;2.07;;;2.07;;
26106;SDS011;13866;50.748;12.630;2022-12-07T13:59:19;3.13;;;2.30;;
26106;SDS011;13866;50.748;12.630;2022-12-07T14:01:48;2.37;;;2.37;;
26106;SDS011;13866;50.748;12.630;2022-12-07T14:04:37;1.70;;;1.70;;
26106;SDS011;13866;50.748;12.630;2022-12-07T14:09:54;2.80;;;2.50;;
26106;SDS011;13866;50.748;12.630;2022-12-07T14:12:31;2.50;;;2.50;;
26106;SDS011;13866;50.748;12.630;2022-12-07T14:14:58;5.77;;;3.80;;
26106;SDS011;13866;50.748;12.630;2022-12-07T14:17:26;2.50;;;2.50;;
26106;SDS011;13866;50.748;12.630;2022-12-07T14:19:55;2.40;;;2.37;;
26106;SDS011;13866;50.748;12.630;2022-12-07T14:22:27;2.70;;;2.60;;
26106;SDS011;13866;50.748;12.630;2022-12-07T14:27:37;2.97;;;2.87;;
26106;SDS011;13866;50.748;12.630;2022-12-07T14:30:04;2.73;;;2.70;;
26106;SDS011;13866;50.748;12.630;2022-12-07T14:32:30;2.70;;;2.60;;
26106;SDS011;13866;50.748;12.630;2022-12-07T14:35:09;2.30;;;2.23;;
26106;SDS011;13866;50.748;12.630;2022-12-07T14:37:36;2.17;;;2.17;;
26106;SDS011;13866;50.748;12.630;2022-12-07T14:40:03;6.40;;;6.10;;
26106;SDS011;13866;50.748;12.630;2022-12-07T14:42:30;3.97;;;2.70;;
26106;SDS011;13866;50.748;12.630;2022-12-07T14:44:57;2.33;;;2.33;;
26106;SDS011;13866;50.748;12.630;2022-12-07T14:47:23;2.70;;;2.60;;
26106;SDS011;13866;50.748;12.630;2022-12-07T14:49:50;2.70;;;2.60;;
26106;SDS011;13866;50.748;12.630;2022-12-07T14:52:17;2.10;;;2.10;;
26106;SDS011;13866;50.748;12.630;2022-12-07T14:54:48;5.17;;;3.10;;
26106;SDS011;13866;50.748;12.630;2022-12-07T14:57:13;2.37;;;2.27;;
26106;SDS011;13866;50.748;12.630;2022-12-07T14:59:39;3.30;;;3.30;;
26106;SDS011;13866;50.748;12.630;2022-12-07T15:02:05;3.40;;;3.23;;
26106;SDS011;13866;50.748;12.630;2022-12-07T15:04:32;2.00;;;1.90;;
26106;SDS011;13866;50.748;12.630;2022-12-07T15:06:58;3.13;;;3.10;;
26106;SDS011;13866;50.748;12.630;2022-12-07T15:09:25;3.00;;;2.47;;
26106;SDS011;13866;50.748;12.630;2022-12-07T15:11:51;3.10;;;2.90;;
26106;SDS011;13866;50.748;12.630;2022-12-07T15:14:16;2.90;;;2.80;;
26106;SDS011;13866;50.748;12.630;2022-12-07T15:16:42;2.50;;;2.50;;
26106;SDS011;13866;50.748;12.630;2022-12-07T15:19:12;2.43;;;2.43;;
26106;SDS011;13866;50.748;12.630;2022-12-07T15:21:40;2.23;;;2.23;;
26106;SDS011;13866;50.748;12.630;2022-12-07T15:24:07;2.40;;;2.40;;
26106;SDS011;13866;50.748;12.630;2022-12-07T15:26:34;2.40;;;2.40;;
26106;SDS011;13866;50.748;12.630;2022-12-07T15:28:59;3.37;;;3.07;;
26106;SDS011;13866;50.748;12.630;2022-12-07T15:31:25;2.57;;;2.47;;
26106;SDS011;13866;50.748;12.630;2022-12-07T15:33:50;2.50;;;2.40;;
26106;SDS011;13866;50.748;12.630;2022-12-07T15:36:20;3.03;;;2.93;;
26106;SDS011;13866;50.748;12.630;2022-12-07T15:38:47;2.80;;;2.70;;
26106;SDS011;13866;50.748;12.630;2022-12-07T15:41:13;3.60;;;2.47;;
26106;SDS011;13866;50.748;12.630;2022-12-07T15:43:39;2.60;;;2.60;;
26106;SDS011;13866;50.748;12.630;2022-12-07T15:46:23;3.75;;;1.88;;
26106;SDS011;13866;50.748;12.630;2022-12-07T15:48:55;2.50;;;2.50;;
26106;SDS011;13866;50.748;12.630;2022-12-07T15:51:20;5.53;;;2.33;;
26106;SDS011;13866;50.748;12.630;2022-12-07T15:53:46;3.20;;;3.10;;
26106;SDS011;13866;50.748;12.630;2022-12-07T15:56:11;2.47;;;2.37;;
26106;SDS011;13866;50.748;12.630;2022-12-07T15:58:37;2.83;;;2.83;;
26106;SDS011;13866;50.748;12.630;2022-12-07T16:01:12;2.70;;;2.70;;
26106;SDS011;13866;50.748;12.630;2022-12-07T16:03:43;2.50;;;2.40;;
26106;SDS011;13866;50.748;12.630;2022-12-07T16:06:09;9.03;;;2.47;;
26106;SDS011;13866;50.748;12.630;2022-12-07T16:08:36;2.60;;;2.50;;
26106;SDS011;13866;50.748;12.630;2022-12-07T16:11:07;3.03;;;2.93;;
26106;SDS011;13866;50.748;12.630;2022-12-07T16:13:33;3.03;;;2.93;;
26106;SDS011;13866;50.748;12.630;2022-12-07T16:16:06;3.63;;;3.47;;
26106;SDS011;13866;50.748;12.630;2022-12-07T16:18:33;6.97;;;6.77;;
26106;SDS011;13866;50.748;12.630;2022-12-07T16:20:59;15.73;;;13.73;;
26106;SDS011;13866;50.748;12.630;2022-12-07T16:23:25;6.13;;;6.00;;
26106;SDS011;13866;50.748;12.630;2022-12-07T16:25:54;3.93;;;3.63;;
26106;SDS011;13866;50.748;12.630;2022-12-07T16:28:19;3.20;;;3.20;;
26106;SDS011;13866;50.748;12.630;2022-12-07T16:30:45;3.50;;;3.30;;
26106;SDS011;13866;50.748;12.630;2022-12-07T16:33:11;3.37;;;3.30;;
26106;SDS011;13866;50.748;12.630;2022-12-07T16:35:40;3.90;;;3.67;;
26106;SDS011;13866;50.748;12.630;2022-12-07T16:38:06;3.83;;;3.27;;
26106;SDS011;13866;50.748;12.630;2022-12-07T16:40:32;2.90;;;2.80;;
26106;SDS011;13866;50.748;12.630;2022-12-07T16:42:57;2.97;;;2.77;;
26106;SDS011;13866;50.748;12.630;2022-12-07T16:45:23;5.60;;;3.13;;
26106;SDS011;13866;50.748;12.630;2022-12-07T16:47:48;2.47;;;2.47;;